EBLG 200050Z 03004KT 8000 FEW020 SCT039 14/12 Q1022 NOSIG EBLG 200020Z VRB02KT 9000 FEW020 SCT039 15/12 Q1022 NOSIG EBLG 192350Z 07003KT 9000 FEW020 15/12 Q1022 NOSIG EBLG 192320Z 06003KT 020V130 9999 FEW044 14/12 Q1022 NOSIG EBLG 192250Z 36003KT 8000 FEW044 15/13 Q1022 NOSIG EBLG 192220Z 35003KT 7000 FEW044 15/13 Q1022 NOSIG EBLG 192150Z 35004KT 7000 SCT044 15/14 Q1022 NOSIG EBLG 192120Z 33005KT 9999 SCT043 16/14 Q1022 NOSIG EBLG 192050Z 34006KT 310V010 9999 FEW043 16/14 Q1022 NOSIG EBLG 192020Z 33006KT 9999 FEW029 SCT043 16/15 Q1022 NOSIG EBLG 191950Z 34009KT 9999 FEW029 SCT043 17/15 Q1021 NOSIG EBLG 191920Z 28004KT 260V320 9999 FEW029 BKN043 19/15 Q1021 NOSIG EBLG 191850Z 30006KT 9999 FEW029 BKN043 20/15 Q1021 NOSIG EBLG 191820Z 28007KT 250V310 9999 FEW029 BKN048 20/14 Q1021 NOSIG EBLG 191750Z 28005KT 250V320 9999 FEW029 BKN048 21/15 Q1020 NOSIG EBLG 191720Z 29006KT 260V330 9999 FEW030 BKN048 21/15 Q1020 NOSIG EBLG 191650Z 29009KT 9999 FEW030 21/15 Q1020 NOSIG EBLG 191620Z 29009KT 9999 FEW026 SCT038 21/15 Q1020 NOSIG EBLG 191550Z 31010KT 280V350 9999 FEW026 BKN038 21/15 Q1020 NOSIG EBLG 191520Z 28006KT 240V320 9999 FEW026 SCT048 22/16 Q1020 NOSIG EBLG 191450Z 26006KT 230V290 9999 FEW040 22/16 Q1019 RETS NOSIG EBLG 191420Z 18003KT 120V240 9999 TS FEW040CB 21/16 Q1019 NOSIG EBLG 191350Z VRB01KT 9999 FEW040CB 19/15 Q1019 NOSIG EBLG 191320Z 31006KT 280V340 9999 FEW040CB 18/15 Q1019 RETS TEMPO 22020G35KT EBLG 191250Z 31010KT 280V340 9999 FEW040CB 18/15 Q1019 RETS TEMPO 22020G35KT EBLG 191220Z 30012KT 9999 -TSRA FEW010 SCT040CB 18/17 Q1019 TEMPO 22020G40KT 4000 TSRA SCT040CB EBLG 191150Z 27018G42KT 210V320 9999 -TSRA FEW026 SCT040CB 19/06 Q1018 TEMPO 22020G40KT 4000 TSRA SCT040CB EBLG 191120Z 20011KT 170V230 CAVOK 29/15 Q1016 TEMPO 4000 TSRA SCT040CB EBLG 191050Z 18010KT CAVOK 28/12 Q1016 TEMPO 4000 TSRA SCT040CB EBLG 191020Z 18012KT 150V210 CAVOK 27/14 Q1017 TEMPO 4000 TSRA SCT040CB EBLG 190950Z 17011KT 130V200 CAVOK 27/13 Q1017 TEMPO 4000 TSRA SCT040CB EBLG 190920Z 15011KT CAVOK 26/13 Q1017 TEMPO 4000 TSRA SCT040CB EBLG 190850Z 14009KT CAVOK 26/13 Q1017 TEMPO 4000 TSRA SCT040CB EBLG 190820Z 14008KT CAVOK 25/14 Q1017 NOSIG EBLG 190750Z 12008KT CAVOK 24/12 Q1018 NOSIG EBLG 190720Z 11007KT 070V140 CAVOK 23/13 Q1018 NOSIG EBLG 190650Z 12007KT 090V170 CAVOK 22/13 Q1018 NOSIG EBLG 190620Z 13007KT 090V160 CAVOK 22/13 Q1018 NOSIG EBLG 190550Z 12005KT CAVOK 21/13 Q1018 NOSIG EBLG 190520Z 10005KT 050V180 CAVOK 21/13 Q1018 NOSIG EBLG 190450Z VRB02KT CAVOK 20/12 Q1018 NOSIG EBLG 190420Z 28005KT 210V310 CAVOK 19/12 Q1018 NOSIG EBLG 190350Z 17007KT CAVOK 20/11 Q1018 NOSIG EBLG 190320Z 17007KT CAVOK 20/11 Q1017 NOSIG EBLG 190250Z 15007KT 130V210 CAVOK 21/11 Q1017 NOSIG EBLG 190220Z 14008KT CAVOK 21/11 Q1017 NOSIG EBLG 190150Z 14007KT 080V180 CAVOK 21/12 Q1017 NOSIG EBLG 190120Z 15007KT CAVOK 21/12 Q1017 NOSIG EBLG 190050Z 14008KT CAVOK 21/13 Q1017 NOSIG EBLG 190020Z 15006KT CAVOK 21/14 Q1018 NOSIG EBLG 182350Z 12006KT CAVOK 20/14 Q1018 NOSIG EBLG 182320Z 11006KT CAVOK 20/14 Q1018 NOSIG EBLG 182250Z 10004KT 040V120 CAVOK 21/15 Q1019 NOSIG EBLG 182220Z 10004KT 010V140 CAVOK 22/14 Q1019 NOSIG EBLG 182150Z 08005KT CAVOK 22/15 Q1019 NOSIG EBLG 182120Z 07006KT 040V110 CAVOK 21/14 Q1019 NOSIG EBLG 182050Z 03004KT CAVOK 21/14 Q1020 NOSIG EBLG 182020Z 04004KT CAVOK 21/14 Q1019 NOSIG EBLG 181950Z 02002KT CAVOK 22/14 Q1020 NOSIG EBLG 181920Z 34003KT CAVOK 23/14 Q1020 NOSIG EBLG 181850Z 35004KT CAVOK 23/14 Q1020 NOSIG EBLG 181820Z 35003KT CAVOK 24/13 Q1020 NOSIG EBLG 181750Z 34005KT CAVOK 25/14 Q1020 NOSIG EBLG 181720Z 36005KT 320V030 CAVOK 25/14 Q1020 NOSIG EBLG 181650Z 34004KT 310V020 CAVOK 25/14 Q1020 NOSIG EBLG 181620Z 32005KT 280V360 CAVOK 26/14 Q1020 NOSIG EBLG 181550Z 35006KT 310V030 CAVOK 26/15 Q1020 NOSIG EBLG 181520Z 33006KT 280V360 CAVOK 26/15 Q1020 NOSIG EBLG 181450Z 32006KT 290V360 CAVOK 26/15 Q1020 NOSIG EBLG 181420Z 29006KT 260V330 CAVOK 26/15 Q1021 NOSIG EBLG 181350Z 33007KT 290V010 CAVOK 26/15 Q1021 NOSIG

METAR Messwerte "BIERSET/LIEGE (C" EBLG

Zurück zur Übersicht

Ortsname
Ländercode / m ü. NN
Zeit Temperatur Taupunkt Rel.
Luftfeuchte
Luftdruck:
Altimeter
NN
Station
Wind in Beaufort
(Knoten)
Sichtweite
(Meter)
Wolken
(Meter über Grund)
Wettererscheinung
BIERSET/LIEGE (C
BE 187
Fr 20.05. 02:50141288 %1022
1022
1000
NNO 2 (4)8000Wolkig (1200)
Leicht bewölkt (610)
 
BIERSET/LIEGE (C
BE 187
Fr 20.05. 02:20151282 %1022
1022
1000
Uml 1 (2)9000Wolkig (1200)
Leicht bewölkt (610)
 
BIERSET/LIEGE (C
BE 187
Fr 20.05. 01:50151282 %1022
1022
1000
ONO 2 (3)9000Leicht bewölkt (610) 
BIERSET/LIEGE (C
BE 187
Fr 20.05. 01:20141288 %1022
1022
1000
ONO 2 (3)
NNO - SO
>= 10000Leicht bewölkt (1300) 
BIERSET/LIEGE (C
BE 187
Fr 20.05. 00:50151388 %1022
1022
1000
N 2 (3)8000Leicht bewölkt (1300) 
BIERSET/LIEGE (C
BE 187
Fr 20.05. 00:20151388 %1022
1022
1000
N 2 (3)7000Leicht bewölkt (1300) 
BIERSET/LIEGE (C
BE 187
Do 19.05. 23:50151494 %1022
1022
1000
N 2 (4)7000Wolkig (1300) 
BIERSET/LIEGE (C
BE 187
Do 19.05. 23:20161488 %1022
1022
1000
NNW 2 (5)>= 10000Wolkig (1300) 
BIERSET/LIEGE (C
BE 187
Do 19.05. 22:50161488 %1022
1022
1000
NNW 2 (6)
NW - N
>= 10000Leicht bewölkt (1300) 
BIERSET/LIEGE (C
BE 187
Do 19.05. 22:20161594 %1022
1022
1000
NNW 2 (6)>= 10000Wolkig (1300)
Leicht bewölkt (880)
 
BIERSET/LIEGE (C
BE 187
Do 19.05. 21:50171588 %1021
1021
999
NNW 3 (9)>= 10000Wolkig (1300)
Leicht bewölkt (880)
 
BIERSET/LIEGE (C
BE 187
Do 19.05. 21:20191578 %1021
1021
999
W 2 (4)
W - NW
>= 10000Stark bewölkt (1300)
Leicht bewölkt (880)
 
BIERSET/LIEGE (C
BE 187
Do 19.05. 20:50201573 %1021
1021
999
WNW 2 (6)>= 10000Stark bewölkt (1300)
Leicht bewölkt (880)
 
BIERSET/LIEGE (C
BE 187
Do 19.05. 20:20201468 %1021
1021
999
W 3 (7)
WSW - NW
>= 10000Stark bewölkt (1500)
Leicht bewölkt (880)
 
BIERSET/LIEGE (C
BE 187
Do 19.05. 19:50211569 %1020
1020
998
W 2 (5)
WSW - NW
>= 10000Stark bewölkt (1500)
Leicht bewölkt (880)
 
BIERSET/LIEGE (C
BE 187
Do 19.05. 19:20211569 %1020
1020
998
WNW 2 (6)
W - NNW
>= 10000Stark bewölkt (1500)
Leicht bewölkt (910)
 
BIERSET/LIEGE (C
BE 187
Do 19.05. 18:50211569 %1020
1020
998
WNW 3 (9)>= 10000Leicht bewölkt (910) 
BIERSET/LIEGE (C
BE 187
Do 19.05. 18:20211569 %1020
1020
998
WNW 3 (9)>= 10000Wolkig (1200)
Leicht bewölkt (790)
 
BIERSET/LIEGE (C
BE 187
Do 19.05. 17:50211569 %1020
1020
998
NW 3 (10)
W - N
>= 10000Stark bewölkt (1200)
Leicht bewölkt (790)
 
BIERSET/LIEGE (C
BE 187
Do 19.05. 17:20221669 %1020
1019
998
W 2 (6)
WSW - NW
>= 10000Wolkig (1500)
Leicht bewölkt (790)
 
BIERSET/LIEGE (C
BE 187
Do 19.05. 16:50221669 %1019
1018
997
W 2 (6)
SW - WNW
>= 10000Leicht bewölkt (1200) 
BIERSET/LIEGE (C
BE 187
Do 19.05. 16:20211673 %1019
1019
997
S 2 (3)
OSO - WSW
>= 10000Leicht bewölkt Cb (1200) 
BIERSET/LIEGE (C
BE 187
Do 19.05. 15:50191578 %1019
1019
997
Uml 1 (1)>= 10000Leicht bewölkt Cb (1200) 
BIERSET/LIEGE (C
BE 187
Do 19.05. 15:20181583 %1019
1019
997
NW 2 (6)
W - NNW
Bald zeitweise:
SW 5 (20) - 8 (35)
>= 10000Leicht bewölkt Cb (1200) 
BIERSET/LIEGE (C
BE 187
Do 19.05. 14:50181583 %1019
1019
997
NW 3 (10)
W - NNW
Bald zeitweise:
SW 5 (20) - 8 (35)
>= 10000Leicht bewölkt Cb (1200) 
BIERSET/LIEGE (C
BE 187
Do 19.05. 14:20181794 %1019
1019
997
WNW 4 (12)
Bald zeitweise:
SW 5 (20) - 8 (40)
>= 10000
Bald zeitweise: 4000
Wolkig Cb (1200)
Leicht bewölkt (300)
Gewitter mit Regen (schwach)
Bald zeitweise: Gewitter mit Regen
BIERSET/LIEGE (C
BE 187
Do 19.05. 13:5019643 %1018
1018
996
W 5 (18) - 9 (42)
SSW - NW
Bald zeitweise:
SW 5 (20) - 8 (40)
>= 10000
Bald zeitweise: 4000
Wolkig Cb (1200)
Leicht bewölkt (790)
Gewitter mit Regen (schwach)
Bald zeitweise: Gewitter mit Regen
BIERSET/LIEGE (C
BE 187
Do 19.05. 13:20291543 %1016
1015
994
SSW 4 (11)
S - SW
>= 10000
Bald zeitweise: 4000
Nicht signifikant Bald zeitweise: Gewitter mit Regen
BIERSET/LIEGE (C
BE 187
Do 19.05. 12:50281237 %1016
1015
994
S 3 (10)>= 10000
Bald zeitweise: 4000
Nicht signifikant Bald zeitweise: Gewitter mit Regen
BIERSET/LIEGE (C
BE 187
Do 19.05. 12:20271445 %1017
1016
995
S 4 (12)
SSO - SSW
>= 10000
Bald zeitweise: 4000
Nicht signifikant Bald zeitweise: Gewitter mit Regen
BIERSET/LIEGE (C
BE 187
Do 19.05. 11:50271342 %1017
1016
995
S 4 (11)
SO - SSW
>= 10000
Bald zeitweise: 4000
Nicht signifikant Bald zeitweise: Gewitter mit Regen
BIERSET/LIEGE (C
BE 187
Do 19.05. 11:20261345 %1017
1016
995
SSO 4 (11)>= 10000
Bald zeitweise: 4000
Nicht signifikant Bald zeitweise: Gewitter mit Regen
BIERSET/LIEGE (C
BE 187
Do 19.05. 10:50261345 %1017
1016
995
SO 3 (9)>= 10000
Bald zeitweise: 4000
Nicht signifikant Bald zeitweise: Gewitter mit Regen
BIERSET/LIEGE (C
BE 187
Do 19.05. 10:20251450 %1017
1016
995
SO 3 (8)>= 10000Nicht signifikant 
BIERSET/LIEGE (C
BE 187
Do 19.05. 09:50241247 %1018
1017
996
OSO 3 (8)>= 10000Nicht signifikant 
BIERSET/LIEGE (C
BE 187
Do 19.05. 09:20231353 %1018
1017
996
OSO 3 (7)
ONO - SO
>= 10000Nicht signifikant 
BIERSET/LIEGE (C
BE 187
Do 19.05. 08:50221357 %1018
1017
996
OSO 3 (7)
O - S
>= 10000Nicht signifikant 
BIERSET/LIEGE (C
BE 187
Do 19.05. 08:20221357 %1018
1017
996
SO 3 (7)
O - SSO
>= 10000Nicht signifikant 
BIERSET/LIEGE (C
BE 187
Do 19.05. 07:50211360 %1018
1018
996
OSO 2 (5)>= 10000Nicht signifikant 
BIERSET/LIEGE (C
BE 187
Do 19.05. 07:20211360 %1018
1018
996
O 2 (5)
NO - S
>= 10000Nicht signifikant 
BIERSET/LIEGE (C
BE 187
Do 19.05. 06:50201260 %1018
1018
996
Uml 1 (2)>= 10000Nicht signifikant 
BIERSET/LIEGE (C
BE 187
Do 19.05. 06:20191264 %1018
1018
996
W 2 (5)
SSW - NW
>= 10000Nicht signifikant 
BIERSET/LIEGE (C
BE 187
Do 19.05. 05:50201156 %1018
1018
996
S 3 (7)>= 10000Nicht signifikant 
BIERSET/LIEGE (C
BE 187
Do 19.05. 05:20201156 %1017
1017
995
S 3 (7)>= 10000Nicht signifikant 
BIERSET/LIEGE (C
BE 187
Do 19.05. 04:50211153 %1017
1017
995
SSO 3 (7)
SO - SSW
>= 10000Nicht signifikant 
BIERSET/LIEGE (C
BE 187
Do 19.05. 04:20211153 %1017
1017
995
SO 3 (8)>= 10000Nicht signifikant 
BIERSET/LIEGE (C
BE 187
Do 19.05. 03:50211256 %1017
1017
995
SO 3 (7)
O - S
>= 10000Nicht signifikant 
BIERSET/LIEGE (C
BE 187
Do 19.05. 03:20211256 %1017
1017
995
SSO 3 (7)>= 10000Nicht signifikant 
BIERSET/LIEGE (C
BE 187
Do 19.05. 02:50211360 %1017
1017
995
SO 3 (8)>= 10000Nicht signifikant 
BIERSET/LIEGE (C
BE 187
Do 19.05. 02:20211464 %1018
1018
996
SSO 2 (6)>= 10000Nicht signifikant 
BIERSET/LIEGE (C
BE 187
Do 19.05. 01:50201468 %1018
1018
996
OSO 2 (6)>= 10000Nicht signifikant 
BIERSET/LIEGE (C
BE 187
Do 19.05. 01:20201468 %1018
1018
996
OSO 2 (6)>= 10000Nicht signifikant 
BIERSET/LIEGE (C
BE 187
Do 19.05. 00:50211569 %1019
1019
997
O 2 (4)
NO - OSO
>= 10000Nicht signifikant 
BIERSET/LIEGE (C
BE 187
Do 19.05. 00:20221460 %1019
1018
997
O 2 (4)
N - SO
>= 10000Nicht signifikant 
BIERSET/LIEGE (C
BE 187
Mi 18.05. 23:50221565 %1019
1018
997
O 2 (5)>= 10000Nicht signifikant 
BIERSET/LIEGE (C
BE 187
Mi 18.05. 23:20211464 %1019
1019
997
ONO 2 (6)
NO - OSO
>= 10000Nicht signifikant 
BIERSET/LIEGE (C
BE 187
Mi 18.05. 22:50211464 %1020
1020
998
NNO 2 (4)>= 10000Nicht signifikant 
BIERSET/LIEGE (C
BE 187
Mi 18.05. 22:20211464 %1019
1019
997
NO 2 (4)>= 10000Nicht signifikant 
BIERSET/LIEGE (C
BE 187
Mi 18.05. 21:50221460 %1020
1019
998
NNO 1 (2)>= 10000Nicht signifikant 
BIERSET/LIEGE (C
BE 187
Mi 18.05. 21:20231457 %1020
1019
998
NNW 2 (3)>= 10000Nicht signifikant 
BIERSET/LIEGE (C
BE 187
Mi 18.05. 20:50231457 %1020
1019
998
N 2 (4)>= 10000Nicht signifikant 
BIERSET/LIEGE (C
BE 187
Mi 18.05. 20:20241350 %1020
1019
998
N 2 (3)>= 10000Nicht signifikant 
BIERSET/LIEGE (C
BE 187
Mi 18.05. 19:50251450 %1020
1019
998
NNW 2 (5)>= 10000Nicht signifikant 
BIERSET/LIEGE (C
BE 187
Mi 18.05. 19:20251450 %1020
1019
998
N 2 (5)
NW - NNO
>= 10000Nicht signifikant 
BIERSET/LIEGE (C
BE 187
Mi 18.05. 18:50251450 %1020
1019
998
NNW 2 (4)
NW - NNO
>= 10000Nicht signifikant 
BIERSET/LIEGE (C
BE 187
Mi 18.05. 18:20261448 %1020
1019
998
NW 2 (5)
W - N
>= 10000Nicht signifikant 
BIERSET/LIEGE (C
BE 187
Mi 18.05. 17:50261551 %1020
1019
998
N 2 (6)
NW - NNO
>= 10000Nicht signifikant 
BIERSET/LIEGE (C
BE 187
Mi 18.05. 17:20261551 %1020
1019
998
NNW 2 (6)
W - N
>= 10000Nicht signifikant 
BIERSET/LIEGE (C
BE 187
Mi 18.05. 16:50261551 %1020
1019
998
NW 2 (6)
WNW - N
>= 10000Nicht signifikant 
BIERSET/LIEGE (C
BE 187
Mi 18.05. 16:20261551 %1021
1020
999
WNW 2 (6)
W - NNW
>= 10000Nicht signifikant 
BIERSET/LIEGE (C
BE 187
Mi 18.05. 15:50261551 %1021
1020
999
NNW 3 (7)
WNW - N
>= 10000Nicht signifikant 

Altimeter: Einstellung am Altimeter (Höhenmesser), die Höhe 0 muss auf diesen Luftdruckwert zeigen, damit das Gerät die Stationshöhe richtig anzeigt.

NN: Luftdruck reduziert auf "Normal Null", auf Meereshöhe, dieser von der Temperatur abhängige Wert wird bisweilen unkorrekt einfach als "Luftdruck" bezeichnet. Eigentlich nur eine fiktive Größe, die es erlaubt, Stationen auf unterschiedlichen Höhen miteinander zu vergleichen.

Station: Realer Luftdruck an der Station.